createdAt,value
2023-05-03T00:01:29.545Z,26.69
2023-05-03T00:04:41.158Z,26.98
2023-05-03T00:12:15.896Z,26.93
2023-05-03T00:15:19.959Z,26.54
2023-05-03T00:18:24.876Z,25.97
2023-05-03T00:21:32.572Z,26.36
2023-05-03T00:24:37.562Z,26.75
2023-05-03T00:31:24.131Z,26.17
2023-05-03T00:34:31.708Z,26.06
2023-05-03T00:37:37.725Z,26.55
2023-05-03T00:40:44.292Z,26.59
2023-05-03T00:43:51.568Z,26.67
2023-05-03T00:46:57.562Z,27.35
2023-05-03T00:50:04.349Z,27.38
2023-05-03T00:53:12.067Z,27.11
2023-05-03T00:56:24.562Z,27.49
2023-05-03T00:59:30.274Z,27.94
2023-05-03T01:02:41.642Z,27.85
2023-05-03T01:06:24.785Z,27.29
2023-05-03T01:09:41.671Z,27.56
2023-05-03T01:12:57.960Z,27.99
2023-05-03T01:16:12.818Z,28.10
2023-05-03T01:19:48.951Z,28.27
2023-05-03T01:23:12.063Z,28.98
2023-05-03T01:26:22.100Z,29.01
2023-05-03T01:29:26.914Z,29.00
2023-05-03T01:32:52.094Z,29.42
2023-05-03T01:36:08.843Z,28.98
2023-05-03T01:39:23.937Z,29.16
2023-05-03T01:42:31.665Z,29.16
2023-05-03T01:45:36.553Z,29.26
2023-05-03T01:48:53.336Z,29.21
2023-05-03T01:52:07.331Z,28.84
2023-05-03T01:55:12.105Z,29.10
2023-05-03T01:58:16.978Z,28.60
2023-05-03T02:01:21.477Z,28.21
2023-05-03T02:04:28.925Z,28.60
2023-05-03T02:07:33.807Z,27.16
2023-05-03T02:10:37.928Z,27.12
2023-05-03T02:13:52.211Z,27.41
2023-05-03T02:17:00.007Z,26.89
2023-05-03T02:20:10.795Z,26.77
2023-05-03T02:23:15.585Z,27.16
2023-05-03T02:26:20.112Z,26.53
2023-05-03T02:29:43.774Z,27.03
2023-05-03T02:32:49.114Z,27.17
2023-05-03T02:39:43.206Z,27.30
2023-05-03T02:42:50.393Z,26.63
2023-05-03T02:46:09.059Z,26.86
2023-05-03T02:49:16.465Z,27.10
2023-05-03T02:52:21.358Z,27.08
2023-05-03T02:55:43.580Z,27.23
2023-05-03T02:59:08.223Z,26.71
2023-05-03T03:02:22.984Z,26.69
2023-05-03T03:05:36.652Z,26.63
2023-05-03T03:08:49.017Z,26.18
2023-05-03T03:12:26.349Z,26.06
2023-05-03T03:15:40.933Z,26.41
2023-05-03T03:18:57.082Z,26.50
2023-05-03T03:22:01.348Z,26.57
2023-05-03T03:25:08.480Z,26.52
2023-05-03T03:28:13.385Z,26.58
2023-05-03T03:31:23.756Z,26.11
2023-05-03T03:34:40.559Z,26.30
2023-05-03T03:38:22.517Z,25.90
2023-05-03T03:41:35.399Z,26.41
2023-05-03T03:44:40.415Z,26.44
2023-05-03T03:47:45.726Z,26.55
2023-05-03T03:50:52.285Z,26.32
2023-05-03T03:54:04.439Z,26.44
2023-05-03T03:57:15.500Z,26.46
2023-05-03T04:00:20.932Z,26.27
2023-05-03T04:36:36.230Z,26.01
2023-05-03T04:39:43.154Z,25.83
2023-05-03T04:46:41.456Z,25.97
2023-05-03T04:49:49.603Z,26.15
2023-05-03T04:52:54.606Z,26.06
2023-05-03T04:56:04.555Z,26.14
2023-05-03T04:59:12.638Z,25.90
2023-05-03T05:02:17.548Z,25.97
2023-05-03T05:05:22.267Z,26.01
2023-05-03T05:08:29.995Z,25.85
2023-05-03T05:11:35.388Z,26.16
2023-05-03T05:14:40.906Z,26.00
2023-05-03T05:17:47.486Z,25.84
2023-05-03T05:20:51.843Z,25.97
2023-05-03T05:23:56.786Z,26.20
2023-05-03T05:27:02.766Z,26.04
2023-05-03T05:30:08.087Z,25.98
2023-05-03T05:33:16.074Z,26.01
2023-05-03T05:36:22.040Z,25.92
2023-05-03T05:39:28.020Z,25.76
2023-05-03T05:42:33.083Z,25.58
2023-05-03T05:46:18.472Z,25.37
2023-05-03T05:49:25.538Z,25.82
2023-05-03T05:52:32.546Z,25.80
2023-05-03T05:55:36.544Z,25.74
2023-05-03T05:58:41.888Z,25.84
2023-05-03T06:01:48.873Z,25.74
2023-05-03T06:04:59.069Z,25.53
2023-05-03T06:08:04.965Z,25.36
2023-05-03T06:11:14.938Z,25.42
2023-05-03T06:14:26.494Z,25.32
2023-05-03T06:34:15.479Z,25.43
2023-05-03T06:37:23.684Z,25.25
2023-05-03T06:40:28.639Z,25.29
2023-05-03T06:43:33.379Z,25.35
2023-05-03T06:46:40.305Z,25.07
2023-05-03T06:49:45.050Z,25.23
2023-05-03T06:52:51.472Z,25.27
2023-05-03T06:55:56.786Z,25.32
2023-05-03T06:59:02.201Z,25.14
2023-05-03T07:02:08.265Z,25.09
2023-05-03T07:05:12.892Z,24.99
2023-05-03T07:08:17.574Z,25.11
2023-05-03T07:11:25.033Z,24.98
2023-05-03T07:14:29.680Z,25.02
2023-05-03T07:17:34.855Z,24.93
2023-05-03T07:20:42.373Z,24.93
2023-05-03T07:23:50.207Z,24.95
2023-05-03T07:26:57.413Z,24.79
2023-05-03T07:30:02.559Z,24.60
2023-05-03T07:33:09.315Z,24.62
2023-05-03T07:36:15.791Z,24.50
2023-05-03T07:39:23.566Z,24.64
2023-05-03T07:42:28.430Z,24.60
2023-05-03T07:45:34.387Z,24.42
2023-05-03T07:48:44.131Z,24.36
2023-05-03T07:51:48.698Z,24.41
2023-05-03T07:54:54.425Z,24.33
2023-05-03T07:58:02.031Z,24.46
2023-05-03T08:01:08.552Z,24.52
2023-05-03T08:04:16.315Z,24.52
2023-05-03T08:07:26.557Z,24.55
2023-05-03T08:10:31.252Z,24.38
2023-05-03T08:13:37.791Z,24.28
2023-05-03T08:16:42.155Z,24.25
2023-05-03T08:19:46.415Z,24.03
2023-05-03T08:22:51.573Z,24.15
2023-05-03T08:25:57.572Z,23.91
2023-05-03T08:29:05.326Z,24.03
2023-05-03T08:32:11.971Z,24.05
2023-05-03T08:35:19.948Z,23.82
2023-05-03T08:38:27.363Z,23.85
2023-05-03T08:41:32.979Z,23.73
2023-05-03T08:44:44.359Z,23.48
2023-05-03T08:47:57.425Z,23.50
2023-05-03T08:51:05.676Z,23.43
2023-05-03T08:54:12.724Z,23.30
2023-05-03T08:57:18.736Z,23.10
2023-05-03T09:00:30.490Z,23.00
2023-05-03T09:03:36.293Z,22.87
2023-05-03T09:06:41.658Z,22.93
2023-05-03T09:09:49.413Z,23.10
2023-05-03T09:13:11.042Z,22.83
2023-05-03T09:16:30.370Z,22.74
2023-05-03T09:19:54.470Z,22.69
2023-05-03T09:23:02.988Z,22.66
2023-05-03T09:26:08.297Z,22.50
2023-05-03T09:29:29.917Z,22.35
2023-05-03T09:32:53.011Z,22.30
2023-05-03T09:35:58.892Z,22.18
2023-05-03T09:39:18.251Z,22.02
2023-05-03T09:42:29.883Z,21.91
2023-05-03T09:45:39.094Z,21.72
2023-05-03T09:48:46.227Z,21.62
2023-05-03T09:51:51.261Z,21.55
2023-05-03T09:54:56.567Z,21.46
2023-05-03T09:58:12.620Z,21.19
2023-05-03T10:01:17.969Z,21.15
2023-05-03T10:04:26.347Z,21.09
2023-05-03T10:07:33.540Z,20.96
2023-05-03T10:10:40.123Z,20.80
2023-05-03T10:13:50.365Z,20.61
2023-05-03T10:17:07.365Z,20.57
2023-05-03T10:20:28.032Z,20.49
2023-05-03T10:23:32.289Z,20.44
2023-05-03T10:26:42.405Z,20.47
2023-05-03T10:29:55.358Z,20.34
2023-05-03T10:33:01.277Z,20.14
2023-05-03T10:36:11.350Z,20.07
2023-05-03T10:39:16.482Z,20.12
2023-05-03T10:42:32.822Z,19.79
2023-05-03T10:45:39.969Z,19.65
2023-05-03T10:48:47.067Z,19.52
2023-05-03T10:51:52.591Z,19.65
2023-05-03T10:54:59.796Z,19.43
2023-05-03T10:58:25.299Z,19.52
2023-05-03T11:01:33.549Z,19.18
2023-05-03T11:04:46.948Z,19.14
2023-05-03T11:08:15.967Z,18.92
2023-05-03T11:11:23.380Z,18.75
2023-05-03T11:14:30.153Z,18.64
2023-05-03T11:17:46.765Z,18.44
2023-05-03T11:20:54.658Z,18.40
2023-05-03T11:24:03.697Z,18.52
2023-05-03T11:27:12.757Z,18.41
2023-05-03T11:30:18.949Z,18.56
2023-05-03T11:33:25.780Z,18.57
2023-05-03T11:36:32.788Z,18.31
2023-05-03T11:39:41.508Z,18.23
2023-05-03T11:43:03.254Z,18.46
2023-05-03T11:46:08.345Z,18.46
2023-05-03T11:49:18.518Z,18.35
2023-05-03T11:52:28.369Z,18.21
2023-05-03T11:55:36.603Z,18.18
2023-05-03T11:59:01.601Z,18.13
2023-05-03T12:02:19.641Z,17.86
2023-05-03T12:06:02.474Z,18.39
2023-05-03T12:09:19.581Z,18.40
2023-05-03T12:12:31.060Z,18.42
2023-05-03T12:15:41.076Z,18.06
2023-05-03T12:18:55.907Z,17.91
2023-05-03T12:22:24.154Z,18.09
2023-05-03T12:25:33.444Z,17.56
2023-05-03T12:28:38.409Z,18.01
2023-05-03T12:31:44.316Z,18.05
2023-05-03T12:34:51.833Z,17.63
2023-05-03T12:38:04.990Z,17.84
2023-05-03T12:41:10.696Z,17.53
2023-05-03T12:44:17.255Z,17.30
2023-05-03T12:47:28.976Z,17.29
2023-05-03T12:50:38.000Z,17.14
2023-05-03T12:53:46.806Z,17.15
2023-05-03T12:56:54.801Z,17.02
2023-05-03T13:00:03.174Z,17.19
2023-05-03T13:06:26.079Z,16.64
2023-05-03T13:13:18.111Z,17.29
2023-05-03T13:16:22.280Z,17.23
2023-05-03T13:19:30.151Z,17.14
2023-05-03T13:22:35.147Z,17.34
2023-05-03T13:25:41.222Z,17.21
2023-05-03T13:28:45.695Z,17.25
2023-05-03T13:31:53.388Z,17.45
2023-05-03T13:34:58.004Z,17.55
2023-05-03T13:38:04.673Z,17.50
2023-05-03T13:41:12.666Z,17.51
2023-05-03T13:44:17.641Z,17.62
2023-05-03T13:47:22.717Z,17.75
2023-05-03T13:50:32.806Z,17.81
2023-05-03T13:53:36.817Z,17.97
2023-05-03T13:56:45.289Z,17.94
2023-05-03T13:59:52.730Z,18.05
2023-05-03T14:02:58.086Z,18.33
2023-05-03T14:06:04.688Z,18.25
2023-05-03T14:09:11.885Z,18.37
2023-05-03T14:12:18.365Z,18.30
2023-05-03T14:15:29.074Z,18.31
2023-05-03T14:18:33.671Z,18.29
2023-05-03T14:21:38.527Z,18.26
2023-05-03T14:24:43.568Z,18.16
2023-05-03T14:27:48.287Z,18.15
2023-05-03T14:30:55.837Z,18.07
2023-05-03T14:34:00.916Z,18.12
2023-05-03T14:37:05.559Z,18.12
2023-05-03T14:40:10.881Z,18.08
2023-05-03T14:43:16.348Z,18.02
2023-05-03T14:46:20.859Z,18.22
2023-05-03T14:49:27.695Z,18.22
2023-05-03T14:52:32.218Z,18.17
2023-05-03T14:55:37.411Z,18.17
2023-05-03T14:58:42.335Z,18.30
2023-05-03T15:01:49.552Z,18.39
2023-05-03T15:04:55.005Z,18.35
2023-05-03T15:08:00.956Z,18.46
2023-05-03T15:11:06.079Z,18.49
2023-05-03T15:14:11.061Z,18.49
2023-05-03T15:17:18.352Z,18.49
2023-05-03T15:20:23.477Z,18.59
2023-05-03T15:23:29.632Z,18.63
2023-05-03T15:26:33.961Z,18.83
2023-05-03T15:29:38.487Z,18.82
2023-05-03T15:32:46.180Z,19.11
2023-05-03T15:35:50.571Z,19.03
2023-05-03T15:38:55.530Z,18.98
2023-05-03T15:42:01.736Z,19.07
2023-05-03T15:45:12.189Z,19.16
2023-05-03T15:48:17.212Z,19.09
2023-05-03T15:51:22.255Z,19.04
2023-05-03T15:54:26.641Z,19.05
2023-05-03T15:57:32.679Z,18.90
2023-05-03T16:00:38.862Z,18.78
2023-05-03T16:03:43.680Z,18.79
2023-05-03T16:06:57.034Z,18.82
2023-05-03T16:10:01.751Z,18.91
2023-05-03T16:13:11.081Z,18.84
2023-05-03T16:16:34.841Z,18.73
2023-05-03T16:19:40.984Z,18.78
2023-05-03T16:22:46.201Z,18.75
2023-05-03T16:25:52.440Z,18.73
2023-05-03T16:28:57.426Z,18.74
2023-05-03T16:32:02.402Z,18.61
2023-05-03T16:35:07.584Z,18.65
2023-05-03T16:38:12.343Z,18.74
2023-05-03T16:41:17.410Z,18.80
2023-05-03T16:44:25.806Z,18.89
2023-05-03T16:47:30.303Z,18.95
2023-05-03T16:50:38.431Z,18.88
2023-05-03T16:53:44.891Z,18.80
2023-05-03T16:56:52.612Z,18.45
2023-05-03T17:00:09.615Z,18.27
2023-05-03T17:03:14.849Z,18.54
2023-05-03T17:06:21.770Z,18.45
2023-05-03T17:09:26.285Z,18.36
2023-05-03T17:12:30.875Z,18.41
2023-05-03T17:15:35.411Z,18.29
2023-05-03T17:18:41.276Z,18.23
2023-05-03T17:21:45.998Z,18.10
2023-05-03T17:24:55.980Z,17.98
2023-05-03T17:28:00.474Z,18.01
2023-05-03T17:31:10.151Z,17.77
2023-05-03T17:34:14.804Z,17.94
2023-05-03T17:37:21.254Z,17.90
2023-05-03T17:40:26.015Z,17.81
2023-05-03T17:50:03.895Z,17.60
2023-05-03T17:53:09.305Z,17.43
2023-05-03T17:56:17.763Z,17.39
2023-05-03T17:59:22.334Z,17.26
2023-05-03T18:02:27.191Z,17.06
2023-05-03T18:05:37.858Z,16.97
2023-05-03T18:08:42.503Z,17.11
2023-05-03T18:11:52.217Z,16.94
2023-05-03T18:15:02.995Z,16.68
2023-05-03T18:18:07.904Z,16.50
2023-05-03T18:21:15.169Z,16.55
2023-05-03T18:24:19.671Z,16.45
2023-05-03T18:27:24.322Z,16.41
2023-05-03T18:30:33.365Z,16.19
2023-05-03T18:33:40.837Z,16.45
2023-05-03T18:36:45.174Z,16.43
2023-05-03T18:39:51.701Z,16.48
2023-05-03T18:42:56.009Z,16.27
2023-05-03T18:46:03.707Z,16.46
2023-05-03T18:49:11.337Z,16.59
2023-05-03T18:52:16.882Z,16.46
2023-05-03T18:55:26.292Z,16.41
2023-05-03T18:58:31.170Z,16.25
2023-05-03T19:01:35.889Z,16.26
2023-05-03T19:04:42.874Z,16.00
2023-05-03T19:07:48.365Z,16.02
2023-05-03T19:10:52.675Z,15.92
2023-05-03T19:13:59.957Z,15.98
2023-05-03T19:17:06.253Z,15.96
2023-05-03T19:20:11.325Z,16.21
2023-05-03T19:23:16.173Z,15.98
2023-05-03T19:26:20.405Z,16.02
2023-05-03T19:29:24.931Z,15.89
2023-05-03T19:32:29.428Z,15.61
2023-05-03T19:35:40.619Z,15.60
2023-05-03T19:38:45.297Z,15.52
2023-05-03T19:41:51.199Z,15.69
2023-05-03T19:44:58.709Z,15.76
2023-05-03T19:48:08.465Z,15.54
2023-05-03T19:51:36.552Z,14.83
2023-05-03T19:55:26.440Z,15.37
2023-05-03T19:59:36.547Z,15.16
2023-05-03T20:03:58.582Z,14.89
2023-05-03T20:08:10.964Z,14.72
2023-05-03T20:11:30.472Z,14.76
2023-05-03T20:16:21.457Z,14.65
2023-05-03T21:50:16.679Z,15.22
2023-05-03T21:53:21.136Z,15.33
2023-05-03T21:56:25.629Z,15.25
2023-05-03T21:59:32.527Z,15.19
2023-05-03T22:02:37.138Z,15.08
2023-05-03T22:05:41.787Z,15.24
2023-05-03T22:08:45.608Z,15.27
2023-05-03T22:11:50.046Z,15.41
2023-05-03T22:14:55.051Z,15.32
2023-05-03T22:17:59.903Z,15.37
2023-05-03T22:21:07.285Z,15.50
2023-05-03T22:24:14.820Z,15.55
2023-05-03T22:27:19.580Z,15.60
2023-05-03T22:30:23.846Z,15.49
2023-05-03T22:33:31.661Z,15.66
2023-05-03T22:36:36.273Z,15.57
2023-05-03T22:39:40.426Z,15.72
2023-05-03T22:42:44.812Z,15.89
2023-05-03T22:45:51.931Z,16.00
2023-05-03T22:48:56.849Z,16.13
2023-05-03T22:52:01.461Z,16.13
2023-05-03T22:55:06.190Z,16.18
2023-05-03T22:58:10.315Z,16.18
2023-05-03T23:01:26.857Z,16.24
2023-05-03T23:04:33.717Z,16.31
2023-05-03T23:07:43.127Z,16.41
2023-05-03T23:10:47.310Z,16.56
2023-05-03T23:13:52.009Z,16.55
2023-05-03T23:16:57.339Z,16.71
2023-05-03T23:20:01.960Z,16.79
2023-05-03T23:23:06.194Z,16.93
2023-05-03T23:26:13.591Z,17.02
2023-05-03T23:29:20.081Z,17.09
2023-05-03T23:32:25.115Z,17.12
2023-05-03T23:35:29.950Z,17.10
2023-05-03T23:38:33.853Z,17.20
2023-05-03T23:41:37.836Z,17.21
2023-05-03T23:44:54.641Z,17.21
2023-05-03T23:48:00.084Z,17.33
2023-05-03T23:51:10.643Z,16.89
2023-05-03T23:54:24.363Z,17.28
2023-05-03T23:57:28.383Z,17.43
